sensor_id;sensor_type;location;lat;lon;timestamp;P1;durP1;ratioP1;P2;durP2;ratioP2
26407;SDS011;14583;43.604;1.364;2023-12-28T00:01:08;15.98;;;6.88;;
26407;SDS011;14583;43.604;1.364;2023-12-28T00:03:34;14.02;;;6.97;;
26407;SDS011;14583;43.604;1.364;2023-12-28T00:05:59;11.23;;;6.35;;
26407;SDS011;14583;43.604;1.364;2023-12-28T00:08:25;16.67;;;7.60;;
26407;SDS011;14583;43.604;1.364;2023-12-28T00:10:51;12.95;;;6.88;;
26407;SDS011;14583;43.604;1.364;2023-12-28T00:13:16;14.40;;;7.35;;
26407;SDS011;14583;43.604;1.364;2023-12-28T00:15:42;12.23;;;6.55;;
26407;SDS011;14583;43.604;1.364;2023-12-28T00:18:08;14.48;;;7.70;;
26407;SDS011;14583;43.604;1.364;2023-12-28T00:20:33;20.75;;;7.50;;
26407;SDS011;14583;43.604;1.364;2023-12-28T00:22:59;15.63;;;7.35;;
26407;SDS011;14583;43.604;1.364;2023-12-28T00:25:25;12.00;;;6.47;;
26407;SDS011;14583;43.604;1.364;2023-12-28T00:27:51;9.07;;;5.97;;
26407;SDS011;14583;43.604;1.364;2023-12-28T00:30:16;23.60;;;7.90;;
26407;SDS011;14583;43.604;1.364;2023-12-28T00:32:43;16.00;;;7.00;;
26407;SDS011;14583;43.604;1.364;2023-12-28T00:35:09;20.42;;;8.02;;
26407;SDS011;14583;43.604;1.364;2023-12-28T00:37:35;13.70;;;6.95;;
26407;SDS011;14583;43.604;1.364;2023-12-28T00:40:01;17.10;;;6.75;;
26407;SDS011;14583;43.604;1.364;2023-12-28T00:42:27;13.00;;;6.80;;
26407;SDS011;14583;43.604;1.364;2023-12-28T00:44:53;17.10;;;7.18;;
26407;SDS011;14583;43.604;1.364;2023-12-28T00:47:18;16.20;;;7.80;;
26407;SDS011;14583;43.604;1.364;2023-12-28T00:49:44;21.52;;;7.28;;
26407;SDS011;14583;43.604;1.364;2023-12-28T00:52:09;18.75;;;6.45;;
26407;SDS011;14583;43.604;1.364;2023-12-28T00:54:35;15.25;;;7.88;;
26407;SDS011;14583;43.604;1.364;2023-12-28T00:57:04;13.48;;;7.47;;
26407;SDS011;14583;43.604;1.364;2023-12-28T00:59:30;19.08;;;7.25;;
26407;SDS011;14583;43.604;1.364;2023-12-28T01:01:56;16.65;;;7.18;;
26407;SDS011;14583;43.604;1.364;2023-12-28T01:04:22;15.60;;;7.70;;
26407;SDS011;14583;43.604;1.364;2023-12-28T01:06:51;19.50;;;7.35;;
26407;SDS011;14583;43.604;1.364;2023-12-28T01:09:17;17.45;;;6.65;;
26407;SDS011;14583;43.604;1.364;2023-12-28T01:11:43;12.45;;;6.68;;
26407;SDS011;14583;43.604;1.364;2023-12-28T01:14:09;12.18;;;5.50;;
26407;SDS011;14583;43.604;1.364;2023-12-28T01:16:34;13.75;;;6.05;;
26407;SDS011;14583;43.604;1.364;2023-12-28T01:19:00;16.55;;;6.75;;
26407;SDS011;14583;43.604;1.364;2023-12-28T01:21:26;13.10;;;5.68;;
26407;SDS011;14583;43.604;1.364;2023-12-28T01:23:53;13.40;;;6.43;;
26407;SDS011;14583;43.604;1.364;2023-12-28T01:26:19;14.90;;;6.43;;
26407;SDS011;14583;43.604;1.364;2023-12-28T01:28:46;16.02;;;6.45;;
26407;SDS011;14583;43.604;1.364;2023-12-28T01:31:11;16.17;;;6.80;;
26407;SDS011;14583;43.604;1.364;2023-12-28T01:33:37;20.45;;;6.70;;
26407;SDS011;14583;43.604;1.364;2023-12-28T01:36:13;16.60;;;8.52;;
26407;SDS011;14583;43.604;1.364;2023-12-28T01:38:48;18.52;;;10.35;;
26407;SDS011;14583;43.604;1.364;2023-12-28T01:41:14;18.45;;;9.95;;
26407;SDS011;14583;43.604;1.364;2023-12-28T01:43:43;21.88;;;11.68;;
26407;SDS011;14583;43.604;1.364;2023-12-28T01:46:11;19.55;;;11.50;;
26407;SDS011;14583;43.604;1.364;2023-12-28T01:48:41;20.17;;;12.57;;
26407;SDS011;14583;43.604;1.364;2023-12-28T01:51:09;19.77;;;12.10;;
26407;SDS011;14583;43.604;1.364;2023-12-28T01:53:36;24.73;;;13.43;;
26407;SDS011;14583;43.604;1.364;2023-12-28T01:56:02;21.13;;;13.68;;
26407;SDS011;14583;43.604;1.364;2023-12-28T01:58:28;24.30;;;14.52;;
26407;SDS011;14583;43.604;1.364;2023-12-28T02:00:57;28.55;;;14.80;;
26407;SDS011;14583;43.604;1.364;2023-12-28T02:03:23;21.45;;;13.88;;
26407;SDS011;14583;43.604;1.364;2023-12-28T02:05:48;21.80;;;13.88;;
26407;SDS011;14583;43.604;1.364;2023-12-28T02:08:14;20.85;;;14.00;;
26407;SDS011;14583;43.604;1.364;2023-12-28T02:10:41;22.38;;;14.32;;
26407;SDS011;14583;43.604;1.364;2023-12-28T02:13:06;23.85;;;13.75;;
26407;SDS011;14583;43.604;1.364;2023-12-28T02:15:32;26.15;;;14.10;;
26407;SDS011;14583;43.604;1.364;2023-12-28T02:20:46;23.25;;;14.18;;
26407;SDS011;14583;43.604;1.364;2023-12-28T02:23:13;19.05;;;13.38;;
26407;SDS011;14583;43.604;1.364;2023-12-28T02:25:39;27.80;;;14.45;;
26407;SDS011;14583;43.604;1.364;2023-12-28T02:28:04;26.10;;;13.18;;
26407;SDS011;14583;43.604;1.364;2023-12-28T02:30:31;23.67;;;13.80;;
26407;SDS011;14583;43.604;1.364;2023-12-28T02:36:02;26.77;;;14.57;;
26407;SDS011;14583;43.604;1.364;2023-12-28T02:38:32;29.63;;;12.82;;
26407;SDS011;14583;43.604;1.364;2023-12-28T02:41:00;20.15;;;13.80;;
26407;SDS011;14583;43.604;1.364;2023-12-28T02:43:28;19.45;;;12.95;;
26407;SDS011;14583;43.604;1.364;2023-12-28T02:45:54;21.27;;;12.52;;
26407;SDS011;14583;43.604;1.364;2023-12-28T02:48:20;18.83;;;12.43;;
26407;SDS011;14583;43.604;1.364;2023-12-28T02:50:45;23.25;;;13.40;;
26407;SDS011;14583;43.604;1.364;2023-12-28T02:53:11;20.83;;;12.30;;
26407;SDS011;14583;43.604;1.364;2023-12-28T02:55:38;21.17;;;11.45;;
26407;SDS011;14583;43.604;1.364;2023-12-28T02:58:03;24.70;;;12.45;;
26407;SDS011;14583;43.604;1.364;2023-12-28T03:00:29;16.35;;;10.60;;
26407;SDS011;14583;43.604;1.364;2023-12-28T03:02:55;16.65;;;10.30;;
26407;SDS011;14583;43.604;1.364;2023-12-28T03:05:21;17.58;;;10.32;;
26407;SDS011;14583;43.604;1.364;2023-12-28T03:07:46;17.75;;;11.20;;
26407;SDS011;14583;43.604;1.364;2023-12-28T03:10:12;16.73;;;11.00;;
26407;SDS011;14583;43.604;1.364;2023-12-28T03:12:38;16.50;;;10.13;;
26407;SDS011;14583;43.604;1.364;2023-12-28T03:15:04;15.57;;;10.00;;
26407;SDS011;14583;43.604;1.364;2023-12-28T03:17:30;21.02;;;10.13;;
26407;SDS011;14583;43.604;1.364;2023-12-28T03:19:58;16.13;;;9.88;;
26407;SDS011;14583;43.604;1.364;2023-12-28T03:22:24;19.17;;;9.68;;
26407;SDS011;14583;43.604;1.364;2023-12-28T03:24:50;17.55;;;11.05;;
26407;SDS011;14583;43.604;1.364;2023-12-28T03:27:15;14.05;;;9.25;;
26407;SDS011;14583;43.604;1.364;2023-12-28T03:29:41;16.73;;;9.25;;
26407;SDS011;14583;43.604;1.364;2023-12-28T03:32:08;19.30;;;9.48;;
26407;SDS011;14583;43.604;1.364;2023-12-28T03:34:33;14.52;;;9.73;;
26407;SDS011;14583;43.604;1.364;2023-12-28T03:37:00;18.05;;;10.05;;
26407;SDS011;14583;43.604;1.364;2023-12-28T03:39:25;18.77;;;9.82;;
26407;SDS011;14583;43.604;1.364;2023-12-28T03:41:51;16.75;;;9.20;;
26407;SDS011;14583;43.604;1.364;2023-12-28T03:44:20;16.58;;;9.75;;
26407;SDS011;14583;43.604;1.364;2023-12-28T03:46:50;16.05;;;9.13;;
26407;SDS011;14583;43.604;1.364;2023-12-28T03:49:16;17.40;;;9.45;;
26407;SDS011;14583;43.604;1.364;2023-12-28T03:51:46;12.38;;;7.70;;
26407;SDS011;14583;43.604;1.364;2023-12-28T03:54:15;12.43;;;7.35;;
26407;SDS011;14583;43.604;1.364;2023-12-28T03:56:42;14.20;;;7.75;;
26407;SDS011;14583;43.604;1.364;2023-12-28T03:59:08;15.13;;;6.95;;
26407;SDS011;14583;43.604;1.364;2023-12-28T04:01:34;13.05;;;7.78;;
26407;SDS011;14583;43.604;1.364;2023-12-28T04:04:01;12.32;;;8.20;;
26407;SDS011;14583;43.604;1.364;2023-12-28T04:06:26;23.50;;;7.68;;
26407;SDS011;14583;43.604;1.364;2023-12-28T04:08:52;20.58;;;7.93;;
26407;SDS011;14583;43.604;1.364;2023-12-28T04:11:18;13.98;;;7.57;;
26407;SDS011;14583;43.604;1.364;2023-12-28T04:13:44;19.30;;;8.95;;
26407;SDS011;14583;43.604;1.364;2023-12-28T04:16:13;12.85;;;7.28;;
26407;SDS011;14583;43.604;1.364;2023-12-28T04:18:39;13.90;;;7.63;;
26407;SDS011;14583;43.604;1.364;2023-12-28T04:21:11;15.40;;;7.68;;
26407;SDS011;14583;43.604;1.364;2023-12-28T04:23:38;15.15;;;7.45;;
26407;SDS011;14583;43.604;1.364;2023-12-28T04:26:05;14.10;;;7.25;;
26407;SDS011;14583;43.604;1.364;2023-12-28T04:28:31;13.43;;;7.15;;
26407;SDS011;14583;43.604;1.364;2023-12-28T04:31:01;15.20;;;7.07;;
26407;SDS011;14583;43.604;1.364;2023-12-28T04:33:27;16.48;;;7.50;;
26407;SDS011;14583;43.604;1.364;2023-12-28T04:35:53;13.23;;;7.43;;
26407;SDS011;14583;43.604;1.364;2023-12-28T04:38:19;17.15;;;8.50;;
26407;SDS011;14583;43.604;1.364;2023-12-28T04:40:44;13.63;;;8.10;;
26407;SDS011;14583;43.604;1.364;2023-12-28T04:43:10;15.90;;;8.48;;
26407;SDS011;14583;43.604;1.364;2023-12-28T04:45:36;19.13;;;7.85;;
26407;SDS011;14583;43.604;1.364;2023-12-28T04:48:01;13.80;;;7.97;;
26407;SDS011;14583;43.604;1.364;2023-12-28T04:50:27;14.75;;;8.60;;
26407;SDS011;14583;43.604;1.364;2023-12-28T04:52:53;20.73;;;8.82;;
26407;SDS011;14583;43.604;1.364;2023-12-28T04:55:19;15.55;;;9.05;;
26407;SDS011;14583;43.604;1.364;2023-12-28T04:57:45;15.57;;;8.98;;
26407;SDS011;14583;43.604;1.364;2023-12-28T05:00:11;14.45;;;7.57;;
26407;SDS011;14583;43.604;1.364;2023-12-28T05:02:37;18.77;;;7.93;;
26407;SDS011;14583;43.604;1.364;2023-12-28T05:05:03;16.65;;;8.77;;
26407;SDS011;14583;43.604;1.364;2023-12-28T05:07:29;17.98;;;8.07;;
26407;SDS011;14583;43.604;1.364;2023-12-28T05:09:55;22.27;;;8.70;;
26407;SDS011;14583;43.604;1.364;2023-12-28T05:12:20;18.67;;;8.57;;
26407;SDS011;14583;43.604;1.364;2023-12-28T05:14:46;17.70;;;8.23;;
26407;SDS011;14583;43.604;1.364;2023-12-28T05:17:12;15.60;;;8.15;;
26407;SDS011;14583;43.604;1.364;2023-12-28T05:19:37;14.05;;;8.00;;
26407;SDS011;14583;43.604;1.364;2023-12-28T05:22:03;18.65;;;7.85;;
26407;SDS011;14583;43.604;1.364;2023-12-28T05:24:31;15.35;;;7.38;;
26407;SDS011;14583;43.604;1.364;2023-12-28T05:26:57;18.33;;;8.00;;
26407;SDS011;14583;43.604;1.364;2023-12-28T05:29:23;16.67;;;7.85;;
26407;SDS011;14583;43.604;1.364;2023-12-28T05:31:49;15.73;;;7.50;;
26407;SDS011;14583;43.604;1.364;2023-12-28T05:34:14;16.60;;;7.68;;
26407;SDS011;14583;43.604;1.364;2023-12-28T05:36:40;15.27;;;7.68;;
26407;SDS011;14583;43.604;1.364;2023-12-28T05:39:07;18.45;;;7.13;;
26407;SDS011;14583;43.604;1.364;2023-12-28T05:41:34;15.18;;;6.75;;
26407;SDS011;14583;43.604;1.364;2023-12-28T05:44:00;16.48;;;9.27;;
26407;SDS011;14583;43.604;1.364;2023-12-28T05:46:26;13.60;;;7.72;;
26407;SDS011;14583;43.604;1.364;2023-12-28T05:48:52;12.05;;;7.13;;
26407;SDS011;14583;43.604;1.364;2023-12-28T05:51:17;13.45;;;7.10;;
26407;SDS011;14583;43.604;1.364;2023-12-28T05:53:46;17.90;;;6.82;;
26407;SDS011;14583;43.604;1.364;2023-12-28T05:56:11;12.95;;;7.05;;
26407;SDS011;14583;43.604;1.364;2023-12-28T05:58:37;15.48;;;6.57;;
26407;SDS011;14583;43.604;1.364;2023-12-28T06:01:03;13.18;;;6.88;;
26407;SDS011;14583;43.604;1.364;2023-12-28T06:03:30;12.90;;;7.10;;
26407;SDS011;14583;43.604;1.364;2023-12-28T06:05:56;15.15;;;7.30;;
26407;SDS011;14583;43.604;1.364;2023-12-28T06:08:22;14.18;;;7.28;;
26407;SDS011;14583;43.604;1.364;2023-12-28T06:10:48;16.20;;;6.55;;
26407;SDS011;14583;43.604;1.364;2023-12-28T06:13:13;13.55;;;6.50;;
26407;SDS011;14583;43.604;1.364;2023-12-28T06:15:40;14.48;;;5.68;;
26407;SDS011;14583;43.604;1.364;2023-12-28T06:18:05;10.77;;;6.30;;
26407;SDS011;14583;43.604;1.364;2023-12-28T06:20:31;15.90;;;6.90;;
26407;SDS011;14583;43.604;1.364;2023-12-28T06:22:57;11.57;;;6.20;;
26407;SDS011;14583;43.604;1.364;2023-12-28T06:25:23;15.02;;;6.97;;
26407;SDS011;14583;43.604;1.364;2023-12-28T06:27:48;12.80;;;6.10;;
26407;SDS011;14583;43.604;1.364;2023-12-28T06:30:14;9.77;;;6.05;;
26407;SDS011;14583;43.604;1.364;2023-12-28T06:32:40;14.88;;;6.97;;
26407;SDS011;14583;43.604;1.364;2023-12-28T06:35:05;12.02;;;6.15;;
26407;SDS011;14583;43.604;1.364;2023-12-28T06:37:31;11.43;;;6.22;;
26407;SDS011;14583;43.604;1.364;2023-12-28T06:39:58;12.30;;;6.32;;
26407;SDS011;14583;43.604;1.364;2023-12-28T06:42:23;15.45;;;6.20;;
26407;SDS011;14583;43.604;1.364;2023-12-28T06:44:49;13.07;;;6.05;;
26407;SDS011;14583;43.604;1.364;2023-12-28T06:47:15;11.40;;;6.68;;
26407;SDS011;14583;43.604;1.364;2023-12-28T06:49:40;11.98;;;6.28;;
26407;SDS011;14583;43.604;1.364;2023-12-28T06:52:06;11.65;;;6.32;;
26407;SDS011;14583;43.604;1.364;2023-12-28T06:54:31;15.00;;;6.28;;
26407;SDS011;14583;43.604;1.364;2023-12-28T06:56:57;11.82;;;6.47;;
26407;SDS011;14583;43.604;1.364;2023-12-28T06:59:23;19.05;;;7.07;;
26407;SDS011;14583;43.604;1.364;2023-12-28T07:01:48;15.13;;;7.32;;
26407;SDS011;14583;43.604;1.364;2023-12-28T07:04:14;12.57;;;6.90;;
26407;SDS011;14583;43.604;1.364;2023-12-28T07:06:40;17.80;;;7.00;;
26407;SDS011;14583;43.604;1.364;2023-12-28T07:09:06;13.07;;;6.82;;
26407;SDS011;14583;43.604;1.364;2023-12-28T07:11:32;10.32;;;6.72;;
26407;SDS011;14583;43.604;1.364;2023-12-28T07:13:58;10.35;;;6.13;;
26407;SDS011;14583;43.604;1.364;2023-12-28T07:16:23;14.48;;;6.75;;
26407;SDS011;14583;43.604;1.364;2023-12-28T07:18:49;17.27;;;6.78;;
26407;SDS011;14583;43.604;1.364;2023-12-28T07:21:15;15.43;;;6.80;;
26407;SDS011;14583;43.604;1.364;2023-12-28T07:23:41;19.95;;;7.00;;
26407;SDS011;14583;43.604;1.364;2023-12-28T07:26:07;15.65;;;6.85;;
26407;SDS011;14583;43.604;1.364;2023-12-28T07:28:33;12.18;;;6.53;;
26407;SDS011;14583;43.604;1.364;2023-12-28T07:30:58;12.25;;;6.85;;
26407;SDS011;14583;43.604;1.364;2023-12-28T07:33:24;12.98;;;6.80;;
26407;SDS011;14583;43.604;1.364;2023-12-28T07:35:50;14.32;;;6.75;;
26407;SDS011;14583;43.604;1.364;2023-12-28T07:38:15;12.77;;;6.40;;
26407;SDS011;14583;43.604;1.364;2023-12-28T07:40:41;13.93;;;7.68;;
26407;SDS011;14583;43.604;1.364;2023-12-28T07:43:07;11.55;;;6.72;;
26407;SDS011;14583;43.604;1.364;2023-12-28T07:45:32;12.48;;;7.35;;
26407;SDS011;14583;43.604;1.364;2023-12-28T07:48:01;10.77;;;7.03;;
26407;SDS011;14583;43.604;1.364;2023-12-28T07:50:27;17.08;;;7.20;;
26407;SDS011;14583;43.604;1.364;2023-12-28T07:52:53;16.20;;;6.82;;
26407;SDS011;14583;43.604;1.364;2023-12-28T07:55:18;14.02;;;7.43;;
26407;SDS011;14583;43.604;1.364;2023-12-28T07:57:44;20.33;;;8.75;;
26407;SDS011;14583;43.604;1.364;2023-12-28T08:00:10;17.98;;;8.07;;
26407;SDS011;14583;43.604;1.364;2023-12-28T08:02:36;12.88;;;7.45;;
26407;SDS011;14583;43.604;1.364;2023-12-28T08:05:03;18.08;;;8.02;;
26407;SDS011;14583;43.604;1.364;2023-12-28T08:07:29;19.10;;;8.70;;
26407;SDS011;14583;43.604;1.364;2023-12-28T08:09:55;17.55;;;7.25;;
26407;SDS011;14583;43.604;1.364;2023-12-28T08:12:20;15.10;;;7.70;;
26407;SDS011;14583;43.604;1.364;2023-12-28T08:14:47;11.77;;;7.55;;
26407;SDS011;14583;43.604;1.364;2023-12-28T08:17:12;20.88;;;9.07;;
26407;SDS011;14583;43.604;1.364;2023-12-28T08:19:38;19.63;;;7.35;;
26407;SDS011;14583;43.604;1.364;2023-12-28T08:22:04;17.35;;;7.88;;
26407;SDS011;14583;43.604;1.364;2023-12-28T08:24:29;15.77;;;7.45;;
26407;SDS011;14583;43.604;1.364;2023-12-28T08:26:55;10.63;;;7.25;;
26407;SDS011;14583;43.604;1.364;2023-12-28T08:29:25;14.80;;;6.88;;
26407;SDS011;14583;43.604;1.364;2023-12-28T08:31:51;12.25;;;6.50;;
26407;SDS011;14583;43.604;1.364;2023-12-28T08:34:17;16.23;;;6.50;;
26407;SDS011;14583;43.604;1.364;2023-12-28T08:36:42;14.98;;;6.78;;
26407;SDS011;14583;43.604;1.364;2023-12-28T08:39:08;18.05;;;7.38;;
26407;SDS011;14583;43.604;1.364;2023-12-28T08:41:33;14.32;;;7.60;;
26407;SDS011;14583;43.604;1.364;2023-12-28T08:43:59;13.38;;;7.13;;
26407;SDS011;14583;43.604;1.364;2023-12-28T08:46:25;17.85;;;7.60;;
26407;SDS011;14583;43.604;1.364;2023-12-28T08:48:51;16.15;;;7.07;;
26407;SDS011;14583;43.604;1.364;2023-12-28T08:51:17;13.45;;;6.57;;
26407;SDS011;14583;43.604;1.364;2023-12-28T08:53:43;13.70;;;6.68;;
26407;SDS011;14583;43.604;1.364;2023-12-28T08:56:21;14.88;;;6.90;;
26407;SDS011;14583;43.604;1.364;2023-12-28T08:58:47;13.20;;;6.50;;
26407;SDS011;14583;43.604;1.364;2023-12-28T09:01:18;15.40;;;6.60;;
26407;SDS011;14583;43.604;1.364;2023-12-28T09:03:51;15.75;;;6.50;;
26407;SDS011;14583;43.604;1.364;2023-12-28T09:06:18;17.27;;;7.05;;
26407;SDS011;14583;43.604;1.364;2023-12-28T09:08:44;10.48;;;6.75;;
26407;SDS011;14583;43.604;1.364;2023-12-28T09:11:12;11.63;;;6.45;;
26407;SDS011;14583;43.604;1.364;2023-12-28T09:13:39;15.82;;;6.25;;
26407;SDS011;14583;43.604;1.364;2023-12-28T09:16:07;17.25;;;6.78;;
26407;SDS011;14583;43.604;1.364;2023-12-28T09:18:34;19.25;;;6.22;;
26407;SDS011;14583;43.604;1.364;2023-12-28T09:21:02;12.73;;;6.10;;
26407;SDS011;14583;43.604;1.364;2023-12-28T09:23:29;16.70;;;6.80;;
26407;SDS011;14583;43.604;1.364;2023-12-28T09:25:57;15.07;;;6.40;;
26407;SDS011;14583;43.604;1.364;2023-12-28T09:28:23;12.35;;;6.55;;
26407;SDS011;14583;43.604;1.364;2023-12-28T09:30:49;9.93;;;6.55;;
26407;SDS011;14583;43.604;1.364;2023-12-28T09:33:15;14.18;;;6.50;;
26407;SDS011;14583;43.604;1.364;2023-12-28T09:35:41;10.07;;;5.90;;
26407;SDS011;14583;43.604;1.364;2023-12-28T09:38:07;12.52;;;5.63;;
26407;SDS011;14583;43.604;1.364;2023-12-28T09:40:34;15.77;;;6.38;;
26407;SDS011;14583;43.604;1.364;2023-12-28T09:45:50;16.48;;;6.75;;
26407;SDS011;14583;43.604;1.364;2023-12-28T09:48:17;13.20;;;7.10;;
26407;SDS011;14583;43.604;1.364;2023-12-28T09:50:45;16.40;;;6.65;;
26407;SDS011;14583;43.604;1.364;2023-12-28T09:53:14;10.88;;;6.82;;
26407;SDS011;14583;43.604;1.364;2023-12-28T09:55:39;15.30;;;7.20;;
26407;SDS011;14583;43.604;1.364;2023-12-28T09:58:05;12.45;;;6.85;;
26407;SDS011;14583;43.604;1.364;2023-12-28T10:00:32;17.65;;;7.18;;
26407;SDS011;14583;43.604;1.364;2023-12-28T10:02:57;15.35;;;7.07;;
26407;SDS011;14583;43.604;1.364;2023-12-28T10:05:23;15.02;;;7.13;;
26407;SDS011;14583;43.604;1.364;2023-12-28T10:07:49;14.13;;;6.85;;
26407;SDS011;14583;43.604;1.364;2023-12-28T10:10:15;10.35;;;6.50;;
26407;SDS011;14583;43.604;1.364;2023-12-28T10:12:42;14.23;;;7.18;;
26407;SDS011;14583;43.604;1.364;2023-12-28T10:15:08;16.85;;;7.50;;
26407;SDS011;14583;43.604;1.364;2023-12-28T10:17:35;12.07;;;7.00;;
26407;SDS011;14583;43.604;1.364;2023-12-28T10:20:01;15.23;;;7.03;;
26407;SDS011;14583;43.604;1.364;2023-12-28T10:22:30;13.27;;;6.90;;
26407;SDS011;14583;43.604;1.364;2023-12-28T10:24:57;13.98;;;6.80;;
26407;SDS011;14583;43.604;1.364;2023-12-28T10:27:24;10.52;;;6.13;;
26407;SDS011;14583;43.604;1.364;2023-12-28T10:29:53;12.15;;;6.82;;
26407;SDS011;14583;43.604;1.364;2023-12-28T10:32:22;17.88;;;6.95;;
26407;SDS011;14583;43.604;1.364;2023-12-28T10:34:51;12.05;;;6.80;;
26407;SDS011;14583;43.604;1.364;2023-12-28T10:37:17;12.05;;;6.95;;
26407;SDS011;14583;43.604;1.364;2023-12-28T10:39:46;11.65;;;6.20;;
26407;SDS011;14583;43.604;1.364;2023-12-28T10:42:16;13.40;;;6.90;;
26407;SDS011;14583;43.604;1.364;2023-12-28T10:44:55;16.73;;;7.13;;
26407;SDS011;14583;43.604;1.364;2023-12-28T10:47:38;12.57;;;7.30;;
26407;SDS011;14583;43.604;1.364;2023-12-28T10:52:35;18.50;;;7.70;;
26407;SDS011;14583;43.604;1.364;2023-12-28T10:55:20;20.13;;;7.45;;
26407;SDS011;14583;43.604;1.364;2023-12-28T11:00:33;18.40;;;7.57;;
26407;SDS011;14583;43.604;1.364;2023-12-28T11:03:05;15.52;;;7.63;;
26407;SDS011;14583;43.604;1.364;2023-12-28T11:05:33;14.93;;;7.68;;
26407;SDS011;14583;43.604;1.364;2023-12-28T11:08:00;15.70;;;8.57;;
26407;SDS011;14583;43.604;1.364;2023-12-28T11:10:28;16.00;;;7.78;;
26407;SDS011;14583;43.604;1.364;2023-12-28T11:12:56;11.85;;;6.60;;
26407;SDS011;14583;43.604;1.364;2023-12-28T11:15:23;20.42;;;8.35;;
26407;SDS011;14583;43.604;1.364;2023-12-28T11:17:50;19.55;;;7.75;;
26407;SDS011;14583;43.604;1.364;2023-12-28T11:20:17;17.15;;;7.30;;
26407;SDS011;14583;43.604;1.364;2023-12-28T11:22:43;11.93;;;8.02;;
26407;SDS011;14583;43.604;1.364;2023-12-28T11:25:16;15.10;;;7.65;;
26407;SDS011;14583;43.604;1.364;2023-12-28T11:27:43;18.33;;;6.95;;
26407;SDS011;14583;43.604;1.364;2023-12-28T11:30:12;15.43;;;7.07;;
26407;SDS011;14583;43.604;1.364;2023-12-28T11:32:42;13.02;;;7.10;;
26407;SDS011;14583;43.604;1.364;2023-12-28T11:35:10;17.42;;;7.30;;
26407;SDS011;14583;43.604;1.364;2023-12-28T11:37:38;14.20;;;7.47;;
26407;SDS011;14583;43.604;1.364;2023-12-28T11:40:11;11.07;;;6.97;;
26407;SDS011;14583;43.604;1.364;2023-12-28T11:42:50;13.75;;;7.53;;
26407;SDS011;14583;43.604;1.364;2023-12-28T11:45:20;18.08;;;7.20;;
26407;SDS011;14583;43.604;1.364;2023-12-28T11:47:58;11.13;;;7.32;;
26407;SDS011;14583;43.604;1.364;2023-12-28T11:50:25;14.82;;;7.30;;
26407;SDS011;14583;43.604;1.364;2023-12-28T11:52:52;14.10;;;6.68;;
26407;SDS011;14583;43.604;1.364;2023-12-28T11:55:24;11.60;;;7.28;;
26407;SDS011;14583;43.604;1.364;2023-12-28T11:57:49;14.38;;;7.10;;
26407;SDS011;14583;43.604;1.364;2023-12-28T12:00:15;10.88;;;6.40;;
26407;SDS011;14583;43.604;1.364;2023-12-28T12:02:44;9.30;;;5.80;;
26407;SDS011;14583;43.604;1.364;2023-12-28T12:05:14;13.02;;;6.40;;
26407;SDS011;14583;43.604;1.364;2023-12-28T12:07:40;11.15;;;7.18;;
26407;SDS011;14583;43.604;1.364;2023-12-28T12:10:06;17.23;;;7.63;;
26407;SDS011;14583;43.604;1.364;2023-12-28T12:12:31;11.32;;;6.55;;
26407;SDS011;14583;43.604;1.364;2023-12-28T12:14:57;9.98;;;6.35;;
26407;SDS011;14583;43.604;1.364;2023-12-28T12:17:23;17.30;;;6.78;;
26407;SDS011;14583;43.604;1.364;2023-12-28T12:19:49;11.95;;;6.70;;
26407;SDS011;14583;43.604;1.364;2023-12-28T12:22:20;11.60;;;6.32;;
26407;SDS011;14583;43.604;1.364;2023-12-28T12:24:47;11.30;;;6.88;;
26407;SDS011;14583;43.604;1.364;2023-12-28T12:27:16;14.07;;;7.18;;
26407;SDS011;14583;43.604;1.364;2023-12-28T12:29:42;10.98;;;6.47;;
26407;SDS011;14583;43.604;1.364;2023-12-28T12:32:08;11.60;;;6.70;;
26407;SDS011;14583;43.604;1.364;2023-12-28T12:34:34;12.60;;;7.13;;
26407;SDS011;14583;43.604;1.364;2023-12-28T12:37:00;12.82;;;6.72;;
26407;SDS011;14583;43.604;1.364;2023-12-28T12:39:26;9.60;;;7.15;;
26407;SDS011;14583;43.604;1.364;2023-12-28T12:41:52;14.23;;;7.47;;
26407;SDS011;14583;43.604;1.364;2023-12-28T12:44:22;12.55;;;6.75;;
26407;SDS011;14583;43.604;1.364;2023-12-28T12:46:48;12.52;;;7.22;;
26407;SDS011;14583;43.604;1.364;2023-12-28T12:49:21;11.75;;;6.95;;
26407;SDS011;14583;43.604;1.364;2023-12-28T12:51:47;9.80;;;6.93;;
26407;SDS011;14583;43.604;1.364;2023-12-28T12:54:16;15.82;;;7.72;;
26407;SDS011;14583;43.604;1.364;2023-12-28T12:56:45;14.98;;;7.00;;
26407;SDS011;14583;43.604;1.364;2023-12-28T12:59:12;13.57;;;7.90;;
26407;SDS011;14583;43.604;1.364;2023-12-28T13:01:44;14.43;;;7.03;;
26407;SDS011;14583;43.604;1.364;2023-12-28T13:04:10;12.38;;;7.68;;
26407;SDS011;14583;43.604;1.364;2023-12-28T13:06:40;15.23;;;7.90;;
26407;SDS011;14583;43.604;1.364;2023-12-28T13:09:06;18.42;;;7.70;;
26407;SDS011;14583;43.604;1.364;2023-12-28T13:11:36;14.18;;;6.82;;
26407;SDS011;14583;43.604;1.364;2023-12-28T13:14:02;13.82;;;7.25;;
26407;SDS011;14583;43.604;1.364;2023-12-28T13:16:28;13.70;;;7.03;;
26407;SDS011;14583;43.604;1.364;2023-12-28T13:18:54;14.65;;;7.22;;
26407;SDS011;14583;43.604;1.364;2023-12-28T13:21:19;15.18;;;7.40;;
26407;SDS011;14583;43.604;1.364;2023-12-28T13:23:45;12.57;;;6.63;;
26407;SDS011;14583;43.604;1.364;2023-12-28T13:26:11;12.98;;;7.13;;
26407;SDS011;14583;43.604;1.364;2023-12-28T13:28:36;13.57;;;6.75;;
26407;SDS011;14583;43.604;1.364;2023-12-28T13:31:02;13.85;;;6.63;;
26407;SDS011;14583;43.604;1.364;2023-12-28T13:33:28;13.02;;;7.25;;
26407;SDS011;14583;43.604;1.364;2023-12-28T13:35:54;10.75;;;7.32;;
26407;SDS011;14583;43.604;1.364;2023-12-28T13:38:21;16.20;;;7.22;;
26407;SDS011;14583;43.604;1.364;2023-12-28T13:40:47;13.15;;;7.78;;
26407;SDS011;14583;43.604;1.364;2023-12-28T13:43:12;13.10;;;6.88;;
26407;SDS011;14583;43.604;1.364;2023-12-28T13:45:38;17.90;;;8.27;;
26407;SDS011;14583;43.604;1.364;2023-12-28T13:48:04;15.13;;;6.82;;
26407;SDS011;14583;43.604;1.364;2023-12-28T13:50:30;12.98;;;7.40;;
26407;SDS011;14583;43.604;1.364;2023-12-28T13:52:56;12.10;;;6.82;;
26407;SDS011;14583;43.604;1.364;2023-12-28T13:55:22;9.63;;;6.63;;
26407;SDS011;14583;43.604;1.364;2023-12-28T13:57:48;12.50;;;6.88;;
26407;SDS011;14583;43.604;1.364;2023-12-28T14:00:14;15.60;;;8.05;;
26407;SDS011;14583;43.604;1.364;2023-12-28T14:02:40;13.80;;;8.32;;
26407;SDS011;14583;43.604;1.364;2023-12-28T14:05:06;13.73;;;7.63;;
26407;SDS011;14583;43.604;1.364;2023-12-28T14:07:32;11.93;;;6.72;;
26407;SDS011;14583;43.604;1.364;2023-12-28T14:09:58;12.15;;;7.47;;
26407;SDS011;14583;43.604;1.364;2023-12-28T14:12:23;10.27;;;7.40;;
26407;SDS011;14583;43.604;1.364;2023-12-28T14:14:49;14.32;;;6.50;;
26407;SDS011;14583;43.604;1.364;2023-12-28T14:17:15;13.32;;;6.57;;
26407;SDS011;14583;43.604;1.364;2023-12-28T14:19:44;14.02;;;7.50;;
26407;SDS011;14583;43.604;1.364;2023-12-28T14:22:11;10.73;;;7.03;;
26407;SDS011;14583;43.604;1.364;2023-12-28T14:24:38;10.52;;;6.80;;
26407;SDS011;14583;43.604;1.364;2023-12-28T14:27:04;9.35;;;7.10;;
26407;SDS011;14583;43.604;1.364;2023-12-28T14:29:30;12.88;;;7.07;;
26407;SDS011;14583;43.604;1.364;2023-12-28T14:31:56;11.48;;;6.75;;
26407;SDS011;14583;43.604;1.364;2023-12-28T14:34:22;10.27;;;6.72;;
26407;SDS011;14583;43.604;1.364;2023-12-28T14:36:48;10.15;;;6.45;;
26407;SDS011;14583;43.604;1.364;2023-12-28T14:39:16;18.60;;;7.68;;
26407;SDS011;14583;43.604;1.364;2023-12-28T14:41:45;11.63;;;6.82;;
26407;SDS011;14583;43.604;1.364;2023-12-28T14:44:11;12.65;;;7.35;;